sensor_id;sensor_type;location;lat;lon;timestamp;P1;durP1;ratioP1;P2;durP2;ratioP2
56746;SDS011;42623;49.978;9.966;2024-03-02T00:00:02;18.80;;;13.40;;
56746;SDS011;42623;49.978;9.966;2024-03-02T00:00:19;21.15;;;12.88;;
56746;SDS011;42623;49.978;9.966;2024-03-02T00:00:31;21.20;;;12.63;;
56746;SDS011;42623;49.978;9.966;2024-03-02T00:00:41;18.60;;;13.07;;
56746;SDS011;42623;49.978;9.966;2024-03-02T00:00:51;17.87;;;12.90;;
56746;SDS011;42623;49.978;9.966;2024-03-02T00:01:01;18.67;;;12.83;;
56746;SDS011;42623;49.978;9.966;2024-03-02T00:01:11;19.33;;;12.60;;
56746;SDS011;42623;49.978;9.966;2024-03-02T00:01:22;20.00;;;13.17;;
56746;SDS011;42623;49.978;9.966;2024-03-02T00:01:32;19.13;;;13.70;;
56746;SDS011;42623;49.978;9.966;2024-03-02T00:01:42;19.63;;;14.43;;
56746;SDS011;42623;49.978;9.966;2024-03-02T00:01:52;19.37;;;13.97;;
56746;SDS011;42623;49.978;9.966;2024-03-02T00:02:03;19.07;;;13.93;;
56746;SDS011;42623;49.978;9.966;2024-03-02T00:02:13;18.93;;;13.47;;
56746;SDS011;42623;49.978;9.966;2024-03-02T00:02:24;17.95;;;13.10;;
56746;SDS011;42623;49.978;9.966;2024-03-02T00:02:39;17.30;;;12.53;;
56746;SDS011;42623;49.978;9.966;2024-03-02T00:02:49;17.50;;;12.93;;
56746;SDS011;42623;49.978;9.966;2024-03-02T00:03:00;18.23;;;13.57;;
56746;SDS011;42623;49.978;9.966;2024-03-02T00:03:10;18.48;;;13.82;;
56746;SDS011;42623;49.978;9.966;2024-03-02T00:03:21;18.55;;;14.02;;
56746;SDS011;42623;49.978;9.966;2024-03-02T00:03:31;18.60;;;13.50;;
56746;SDS011;42623;49.978;9.966;2024-03-02T00:03:42;19.87;;;12.57;;
56746;SDS011;42623;49.978;9.966;2024-03-02T00:03:53;19.92;;;11.95;;
56746;SDS011;42623;49.978;9.966;2024-03-02T00:04:06;19.60;;;11.70;;
56746;SDS011;42623;49.978;9.966;2024-03-02T00:04:17;18.55;;;12.68;;
56746;SDS011;42623;49.978;9.966;2024-03-02T00:04:27;19.13;;;13.20;;
56746;SDS011;42623;49.978;9.966;2024-03-02T00:04:37;20.17;;;14.50;;
56746;SDS011;42623;49.978;9.966;2024-03-02T00:04:48;19.87;;;13.63;;
56746;SDS011;42623;49.978;9.966;2024-03-02T00:04:58;18.90;;;12.93;;
56746;SDS011;42623;49.978;9.966;2024-03-02T00:05:12;18.90;;;12.73;;
56746;SDS011;42623;49.978;9.966;2024-03-02T00:05:22;18.67;;;13.43;;
56746;SDS011;42623;49.978;9.966;2024-03-02T00:05:32;17.95;;;13.20;;
56746;SDS011;42623;49.978;9.966;2024-03-02T00:05:42;17.63;;;12.67;;
56746;SDS011;42623;49.978;9.966;2024-03-02T00:05:52;19.03;;;13.03;;
56746;SDS011;42623;49.978;9.966;2024-03-02T00:06:03;19.07;;;13.07;;
56746;SDS011;42623;49.978;9.966;2024-03-02T00:06:13;19.50;;;14.05;;
56746;SDS011;42623;49.978;9.966;2024-03-02T00:06:23;18.30;;;13.47;;
56746;SDS011;42623;49.978;9.966;2024-03-02T00:06:34;19.47;;;13.70;;
56746;SDS011;42623;49.978;9.966;2024-03-02T00:06:44;17.40;;;12.45;;
56746;SDS011;42623;49.978;9.966;2024-03-02T00:06:54;16.07;;;12.03;;
56746;SDS011;42623;49.978;9.966;2024-03-02T00:07:06;15.15;;;11.90;;
56746;SDS011;42623;49.978;9.966;2024-03-02T00:07:16;16.13;;;12.05;;
56746;SDS011;42623;49.978;9.966;2024-03-02T00:07:27;17.38;;;12.60;;
56746;SDS011;42623;49.978;9.966;2024-03-02T00:07:53;18.00;;;12.93;;
56746;SDS011;42623;49.978;9.966;2024-03-02T00:08:04;20.05;;;13.77;;
56746;SDS011;42623;49.978;9.966;2024-03-02T00:08:15;21.90;;;14.48;;
56746;SDS011;42623;49.978;9.966;2024-03-02T00:08:28;23.05;;;14.95;;
56746;SDS011;42623;49.978;9.966;2024-03-02T00:08:39;21.33;;;13.73;;
56746;SDS011;42623;49.978;9.966;2024-03-02T00:08:49;22.13;;;13.82;;
56746;SDS011;42623;49.978;9.966;2024-03-02T00:09:00;20.70;;;13.60;;
56746;SDS011;42623;49.978;9.966;2024-03-02T00:09:10;21.42;;;14.65;;
56746;SDS011;42623;49.978;9.966;2024-03-02T00:09:22;21.38;;;14.68;;
56746;SDS011;42623;49.978;9.966;2024-03-02T00:09:32;20.53;;;14.03;;
56746;SDS011;42623;49.978;9.966;2024-03-02T00:09:43;19.63;;;13.77;;
56746;SDS011;42623;49.978;9.966;2024-03-02T00:09:53;19.05;;;14.23;;
56746;SDS011;42623;49.978;9.966;2024-03-02T00:10:08;18.67;;;14.63;;
56746;SDS011;42623;49.978;9.966;2024-03-02T00:10:19;18.10;;;14.45;;
56746;SDS011;42623;49.978;9.966;2024-03-02T00:10:39;16.95;;;14.00;;
56746;SDS011;42623;49.978;9.966;2024-03-02T00:10:49;17.38;;;13.25;;
56746;SDS011;42623;49.978;9.966;2024-03-02T00:11:00;19.15;;;12.95;;
56746;SDS011;42623;49.978;9.966;2024-03-02T00:11:12;20.38;;;13.27;;
56746;SDS011;42623;49.978;9.966;2024-03-02T00:11:24;19.45;;;12.70;;
56746;SDS011;42623;49.978;9.966;2024-03-02T00:11:37;17.43;;;12.93;;
56746;SDS011;42623;49.978;9.966;2024-03-02T00:11:47;17.65;;;13.25;;
56746;SDS011;42623;49.978;9.966;2024-03-02T00:11:57;17.60;;;13.17;;
56746;SDS011;42623;49.978;9.966;2024-03-02T00:12:07;18.65;;;13.02;;
56746;SDS011;42623;49.978;9.966;2024-03-02T00:12:18;18.73;;;13.17;;
56746;SDS011;42623;49.978;9.966;2024-03-02T00:12:28;20.60;;;13.60;;
56746;SDS011;42623;49.978;9.966;2024-03-02T00:12:39;19.20;;;13.18;;
56746;SDS011;42623;49.978;9.966;2024-03-02T00:12:49;20.13;;;13.60;;
56746;SDS011;42623;49.978;9.966;2024-03-02T00:12:59;18.33;;;13.40;;
56746;SDS011;42623;49.978;9.966;2024-03-02T00:13:09;18.27;;;13.60;;
56746;SDS011;42623;49.978;9.966;2024-03-02T00:13:20;17.83;;;13.07;;
56746;SDS011;42623;49.978;9.966;2024-03-02T00:13:32;18.63;;;12.52;;
56746;SDS011;42623;49.978;9.966;2024-03-02T00:13:43;17.90;;;13.18;;
56746;SDS011;42623;49.978;9.966;2024-03-02T00:13:54;16.58;;;13.30;;
56746;SDS011;42623;49.978;9.966;2024-03-02T00:14:05;16.92;;;13.50;;
56746;SDS011;42623;49.978;9.966;2024-03-02T00:14:15;18.33;;;13.00;;
56746;SDS011;42623;49.978;9.966;2024-03-02T00:14:25;21.10;;;13.97;;
56746;SDS011;42623;49.978;9.966;2024-03-02T00:14:35;20.42;;;13.93;;
56746;SDS011;42623;49.978;9.966;2024-03-02T00:14:46;20.73;;;14.23;;
56746;SDS011;42623;49.978;9.966;2024-03-02T00:14:56;20.73;;;14.23;;
56746;SDS011;42623;49.978;9.966;2024-03-02T00:15:07;20.93;;;13.83;;
56746;SDS011;42623;49.978;9.966;2024-03-02T00:16:01;21.50;;;13.65;;
56746;SDS011;42623;49.978;9.966;2024-03-02T00:16:11;21.40;;;14.07;;
56746;SDS011;42623;49.978;9.966;2024-03-02T00:16:21;20.33;;;14.27;;
56746;SDS011;42623;49.978;9.966;2024-03-02T00:16:32;20.10;;;14.00;;
56746;SDS011;42623;49.978;9.966;2024-03-02T00:16:42;22.30;;;14.13;;
56746;SDS011;42623;49.978;9.966;2024-03-02T00:16:54;22.55;;;13.25;;
56746;SDS011;42623;49.978;9.966;2024-03-02T00:17:04;23.02;;;13.82;;
56746;SDS011;42623;49.978;9.966;2024-03-02T00:17:17;18.83;;;13.35;;
56746;SDS011;42623;49.978;9.966;2024-03-02T00:17:31;20.33;;;12.90;;
56746;SDS011;42623;49.978;9.966;2024-03-02T00:17:41;21.63;;;13.43;;
56746;SDS011;42623;49.978;9.966;2024-03-02T00:17:52;22.10;;;14.27;;
56746;SDS011;42623;49.978;9.966;2024-03-02T00:18:03;21.02;;;15.10;;
56746;SDS011;42623;49.978;9.966;2024-03-02T00:18:16;19.23;;;14.32;;
56746;SDS011;42623;49.978;9.966;2024-03-02T00:18:32;17.48;;;13.35;;
56746;SDS011;42623;49.978;9.966;2024-03-02T00:18:42;17.33;;;13.18;;
56746;SDS011;42623;49.978;9.966;2024-03-02T00:18:53;17.47;;;13.03;;
56746;SDS011;42623;49.978;9.966;2024-03-02T00:19:03;18.90;;;13.53;;
56746;SDS011;42623;49.978;9.966;2024-03-02T00:19:15;19.33;;;13.82;;
56746;SDS011;42623;49.978;9.966;2024-03-02T00:19:25;18.80;;;13.30;;
56746;SDS011;42623;49.978;9.966;2024-03-02T00:19:38;18.63;;;14.10;;
56746;SDS011;42623;49.978;9.966;2024-03-02T00:19:49;17.77;;;13.30;;
56746;SDS011;42623;49.978;9.966;2024-03-02T00:19:59;18.00;;;12.93;;
56746;SDS011;42623;49.978;9.966;2024-03-02T00:20:10;19.03;;;13.33;;
56746;SDS011;42623;49.978;9.966;2024-03-02T00:20:21;20.70;;;14.07;;
56746;SDS011;42623;49.978;9.966;2024-03-02T00:20:31;20.25;;;14.15;;
56746;SDS011;42623;49.978;9.966;2024-03-02T00:20:42;20.23;;;14.00;;
56746;SDS011;42623;49.978;9.966;2024-03-02T00:20:53;20.60;;;14.37;;
56746;SDS011;42623;49.978;9.966;2024-03-02T00:21:03;21.15;;;14.13;;
56746;SDS011;42623;49.978;9.966;2024-03-02T00:21:15;21.65;;;14.35;;
56746;SDS011;42623;49.978;9.966;2024-03-02T00:21:29;20.75;;;13.80;;
56746;SDS011;42623;49.978;9.966;2024-03-02T00:21:39;21.33;;;14.40;;
56746;SDS011;42623;49.978;9.966;2024-03-02T00:21:49;20.80;;;14.37;;
56746;SDS011;42623;49.978;9.966;2024-03-02T00:22:00;21.13;;;15.50;;
56746;SDS011;42623;49.978;9.966;2024-03-02T00:22:10;18.88;;;14.27;;
56746;SDS011;42623;49.978;9.966;2024-03-02T00:22:21;19.37;;;14.03;;
56746;SDS011;42623;49.978;9.966;2024-03-02T00:22:31;18.73;;;12.77;;
56746;SDS011;42623;49.978;9.966;2024-03-02T00:22:41;23.40;;;12.77;;
56746;SDS011;42623;49.978;9.966;2024-03-02T00:22:51;22.30;;;12.83;;
56746;SDS011;42623;49.978;9.966;2024-03-02T00:23:03;22.50;;;13.25;;
56746;SDS011;42623;49.978;9.966;2024-03-02T00:23:15;20.25;;;13.80;;
56746;SDS011;42623;49.978;9.966;2024-03-02T00:23:31;21.92;;;14.05;;
56746;SDS011;42623;49.978;9.966;2024-03-02T00:23:42;19.35;;;13.88;;
56746;SDS011;42623;49.978;9.966;2024-03-02T00:23:52;18.43;;;13.53;;
56746;SDS011;42623;49.978;9.966;2024-03-02T00:24:07;19.63;;;13.95;;
56746;SDS011;42623;49.978;9.966;2024-03-02T00:24:24;20.40;;;13.48;;
56746;SDS011;42623;49.978;9.966;2024-03-02T00:24:39;19.55;;;13.32;;
56746;SDS011;42623;49.978;9.966;2024-03-02T00:24:49;20.00;;;13.23;;
56746;SDS011;42623;49.978;9.966;2024-03-02T00:24:59;18.87;;;12.90;;
56746;SDS011;42623;49.978;9.966;2024-03-02T00:25:09;18.70;;;12.40;;
56746;SDS011;42623;49.978;9.966;2024-03-02T00:25:20;18.83;;;12.53;;
56746;SDS011;42623;49.978;9.966;2024-03-02T00:25:38;18.97;;;13.17;;
56746;SDS011;42623;49.978;9.966;2024-03-02T00:25:50;18.83;;;12.93;;
56746;SDS011;42623;49.978;9.966;2024-03-02T00:26:03;20.05;;;13.40;;
56746;SDS011;42623;49.978;9.966;2024-03-02T00:26:13;19.65;;;13.02;;
56746;SDS011;42623;49.978;9.966;2024-03-02T00:26:24;19.65;;;12.80;;
56746;SDS011;42623;49.978;9.966;2024-03-02T00:26:34;18.27;;;11.97;;
56746;SDS011;42623;49.978;9.966;2024-03-02T00:26:45;19.10;;;13.13;;
56746;SDS011;42623;49.978;9.966;2024-03-02T00:26:55;19.00;;;13.52;;
56746;SDS011;42623;49.978;9.966;2024-03-02T00:27:05;18.37;;;13.43;;
56746;SDS011;42623;49.978;9.966;2024-03-02T00:27:17;19.33;;;13.38;;
56746;SDS011;42623;49.978;9.966;2024-03-02T00:27:27;19.58;;;14.00;;
56746;SDS011;42623;49.978;9.966;2024-03-02T00:27:38;20.07;;;13.70;;
56746;SDS011;42623;49.978;9.966;2024-03-02T00:27:48;17.87;;;13.10;;
56746;SDS011;42623;49.978;9.966;2024-03-02T00:28:01;17.80;;;13.05;;
56746;SDS011;42623;49.978;9.966;2024-03-02T00:28:25;19.92;;;13.52;;
56746;SDS011;42623;49.978;9.966;2024-03-02T00:28:36;19.52;;;12.72;;
56746;SDS011;42623;49.978;9.966;2024-03-02T00:28:46;20.60;;;13.63;;
56746;SDS011;42623;49.978;9.966;2024-03-02T00:28:57;21.03;;;13.97;;
56746;SDS011;42623;49.978;9.966;2024-03-02T00:29:07;21.50;;;14.20;;
56746;SDS011;42623;49.978;9.966;2024-03-02T00:29:23;18.65;;;12.80;;
56746;SDS011;42623;49.978;9.966;2024-03-02T00:29:34;17.63;;;12.50;;
56746;SDS011;42623;49.978;9.966;2024-03-02T00:29:44;16.63;;;12.50;;
56746;SDS011;42623;49.978;9.966;2024-03-02T00:29:54;16.43;;;12.07;;
56746;SDS011;42623;49.978;9.966;2024-03-02T00:30:57;18.48;;;13.52;;
56746;SDS011;42623;49.978;9.966;2024-03-02T00:35:56;21.15;;;13.30;;
56746;SDS011;42623;49.978;9.966;2024-03-02T00:36:38;17.15;;;13.13;;
56746;SDS011;42623;49.978;9.966;2024-03-02T00:36:48;19.20;;;13.77;;
56746;SDS011;42623;49.978;9.966;2024-03-02T00:36:59;19.83;;;13.15;;
56746;SDS011;42623;49.978;9.966;2024-03-02T00:37:09;18.73;;;12.82;;
56746;SDS011;42623;49.978;9.966;2024-03-02T00:37:21;18.35;;;12.48;;
56746;SDS011;42623;49.978;9.966;2024-03-02T00:37:31;19.97;;;13.67;;
56746;SDS011;42623;49.978;9.966;2024-03-02T00:37:42;20.00;;;14.17;;
56746;SDS011;42623;49.978;9.966;2024-03-02T00:37:52;19.70;;;14.25;;
56746;SDS011;42623;49.978;9.966;2024-03-02T00:38:06;18.63;;;13.67;;
56746;SDS011;42623;49.978;9.966;2024-03-02T00:38:20;18.58;;;13.68;;
56746;SDS011;42623;49.978;9.966;2024-03-02T00:39:48;19.50;;;12.77;;
56746;SDS011;42623;49.978;9.966;2024-03-02T00:40:36;18.38;;;12.82;;
56746;SDS011;42623;49.978;9.966;2024-03-02T00:40:47;19.58;;;13.98;;
56746;SDS011;42623;49.978;9.966;2024-03-02T00:41:04;16.63;;;13.00;;
56746;SDS011;42623;49.978;9.966;2024-03-02T00:41:20;17.42;;;12.77;;
56746;SDS011;42623;49.978;9.966;2024-03-02T00:41:34;20.23;;;13.95;;
56746;SDS011;42623;49.978;9.966;2024-03-02T00:41:50;20.60;;;13.23;;
56746;SDS011;42623;49.978;9.966;2024-03-02T00:42:00;19.02;;;11.77;;
56746;SDS011;42623;49.978;9.966;2024-03-02T00:42:10;17.93;;;11.73;;
56746;SDS011;42623;49.978;9.966;2024-03-02T00:42:21;16.83;;;11.55;;
56746;SDS011;42623;49.978;9.966;2024-03-02T00:42:31;17.23;;;11.87;;
56746;SDS011;42623;49.978;9.966;2024-03-02T00:42:41;16.53;;;11.57;;
56746;SDS011;42623;49.978;9.966;2024-03-02T00:42:52;18.10;;;11.70;;
56746;SDS011;42623;49.978;9.966;2024-03-02T00:43:02;18.17;;;11.83;;
56746;SDS011;42623;49.978;9.966;2024-03-02T00:43:43;18.42;;;13.20;;
56746;SDS011;42623;49.978;9.966;2024-03-02T00:44:13;19.33;;;13.65;;
56746;SDS011;42623;49.978;9.966;2024-03-02T00:44:29;20.25;;;13.18;;
56746;SDS011;42623;49.978;9.966;2024-03-02T00:47:37;18.73;;;12.93;;
56746;SDS011;42623;49.978;9.966;2024-03-02T00:53:34;22.23;;;15.10;;
56746;SDS011;42623;49.978;9.966;2024-03-02T00:53:45;22.23;;;15.13;;
56746;SDS011;42623;49.978;9.966;2024-03-02T00:54:08;21.50;;;15.27;;
56746;SDS011;42623;49.978;9.966;2024-03-02T00:54:19;22.27;;;15.60;;
56746;SDS011;42623;49.978;9.966;2024-03-02T00:55:06;17.98;;;12.63;;
56746;SDS011;42623;49.978;9.966;2024-03-02T00:55:17;18.08;;;13.75;;
56746;SDS011;42623;49.978;9.966;2024-03-02T00:55:28;19.08;;;13.90;;
56746;SDS011;42623;49.978;9.966;2024-03-02T00:55:38;18.13;;;13.73;;
56746;SDS011;42623;49.978;9.966;2024-03-02T00:55:54;20.80;;;14.50;;
56746;SDS011;42623;49.978;9.966;2024-03-02T00:56:15;20.40;;;13.97;;
56746;SDS011;42623;49.978;9.966;2024-03-02T00:56:25;18.90;;;13.50;;
56746;SDS011;42623;49.978;9.966;2024-03-02T00:56:36;18.15;;;13.07;;
56746;SDS011;42623;49.978;9.966;2024-03-02T00:56:46;16.90;;;12.90;;
56746;SDS011;42623;49.978;9.966;2024-03-02T00:56:57;16.55;;;12.25;;
56746;SDS011;42623;49.978;9.966;2024-03-02T00:57:09;16.73;;;12.40;;
56746;SDS011;42623;49.978;9.966;2024-03-02T00:57:20;19.67;;;13.20;;
56746;SDS011;42623;49.978;9.966;2024-03-02T00:57:30;20.27;;;13.47;;
56746;SDS011;42623;49.978;9.966;2024-03-02T00:57:41;19.83;;;13.18;;
56746;SDS011;42623;49.978;9.966;2024-03-02T00:57:52;19.70;;;14.03;;
56746;SDS011;42623;49.978;9.966;2024-03-02T00:58:02;19.63;;;14.40;;
56746;SDS011;42623;49.978;9.966;2024-03-02T00:58:12;19.90;;;14.05;;
56746;SDS011;42623;49.978;9.966;2024-03-02T00:58:22;19.00;;;12.60;;
56746;SDS011;42623;49.978;9.966;2024-03-02T00:58:32;18.07;;;11.80;;
56746;SDS011;42623;49.978;9.966;2024-03-02T00:58:42;18.07;;;12.37;;
56746;SDS011;42623;49.978;9.966;2024-03-02T00:58:53;17.67;;;12.37;;
56746;SDS011;42623;49.978;9.966;2024-03-02T00:59:03;18.05;;;12.63;;
56746;SDS011;42623;49.978;9.966;2024-03-02T00:59:13;17.37;;;12.00;;
56746;SDS011;42623;49.978;9.966;2024-03-02T00:59:23;17.33;;;11.80;;
56746;SDS011;42623;49.978;9.966;2024-03-02T00:59:33;16.63;;;11.90;;
56746;SDS011;42623;49.978;9.966;2024-03-02T00:59:43;15.87;;;11.43;;
56746;SDS011;42623;49.978;9.966;2024-03-02T00:59:53;16.88;;;12.13;;
56746;SDS011;42623;49.978;9.966;2024-03-02T01:00:04;19.40;;;12.07;;
56746;SDS011;42623;49.978;9.966;2024-03-02T01:00:18;19.52;;;12.05;;
56746;SDS011;42623;49.978;9.966;2024-03-02T01:00:28;19.02;;;12.07;;
56746;SDS011;42623;49.978;9.966;2024-03-02T01:00:39;18.03;;;12.47;;
56746;SDS011;42623;49.978;9.966;2024-03-02T01:00:49;18.90;;;12.70;;
56746;SDS011;42623;49.978;9.966;2024-03-02T01:00:59;16.80;;;11.83;;
56746;SDS011;42623;49.978;9.966;2024-03-02T01:01:09;17.77;;;11.57;;
56746;SDS011;42623;49.978;9.966;2024-03-02T01:01:19;17.38;;;11.25;;
56746;SDS011;42623;49.978;9.966;2024-03-02T01:01:29;16.73;;;10.70;;
56746;SDS011;42623;49.978;9.966;2024-03-02T01:01:39;15.87;;;10.73;;
56746;SDS011;42623;49.978;9.966;2024-03-02T01:01:50;15.50;;;10.97;;
56746;SDS011;42623;49.978;9.966;2024-03-02T01:02:00;15.73;;;11.30;;
56746;SDS011;42623;49.978;9.966;2024-03-02T01:02:11;16.30;;;11.52;;
56746;SDS011;42623;49.978;9.966;2024-03-02T01:02:21;16.77;;;11.13;;
56746;SDS011;42623;49.978;9.966;2024-03-02T01:02:31;16.67;;;11.53;;
56746;SDS011;42623;49.978;9.966;2024-03-02T01:02:42;15.98;;;11.98;;
56746;SDS011;42623;49.978;9.966;2024-03-02T01:02:54;15.36;;;11.84;;
56746;SDS011;42623;49.978;9.966;2024-03-02T01:03:04;15.40;;;11.77;;
56746;SDS011;42623;49.978;9.966;2024-03-02T01:03:14;15.83;;;12.20;;
56746;SDS011;42623;49.978;9.966;2024-03-02T01:03:24;17.67;;;12.60;;
56746;SDS011;42623;49.978;9.966;2024-03-02T01:03:35;18.60;;;13.13;;
56746;SDS011;42623;49.978;9.966;2024-03-02T01:03:45;18.43;;;12.57;;
56746;SDS011;42623;49.978;9.966;2024-03-02T01:03:55;17.80;;;12.80;;
56746;SDS011;42623;49.978;9.966;2024-03-02T01:04:05;19.77;;;12.73;;
56746;SDS011;42623;49.978;9.966;2024-03-02T01:04:16;19.77;;;13.33;;
56746;SDS011;42623;49.978;9.966;2024-03-02T01:04:26;18.90;;;13.17;;
56746;SDS011;42623;49.978;9.966;2024-03-02T01:04:36;17.88;;;12.95;;
56746;SDS011;42623;49.978;9.966;2024-03-02T01:04:46;17.50;;;12.67;;
56746;SDS011;42623;49.978;9.966;2024-03-02T01:04:56;17.90;;;12.43;;
56746;SDS011;42623;49.978;9.966;2024-03-02T01:05:07;17.43;;;12.67;;
56746;SDS011;42623;49.978;9.966;2024-03-02T01:05:18;18.23;;;12.83;;
56746;SDS011;42623;49.978;9.966;2024-03-02T01:05:28;18.33;;;12.80;;
56746;SDS011;42623;49.978;9.966;2024-03-02T01:05:44;19.40;;;12.97;;
56746;SDS011;42623;49.978;9.966;2024-03-02T01:05:54;17.02;;;12.20;;
56746;SDS011;42623;49.978;9.966;2024-03-02T01:06:04;17.73;;;11.83;;
56746;SDS011;42623;49.978;9.966;2024-03-02T01:06:15;16.80;;;11.77;;
56746;SDS011;42623;49.978;9.966;2024-03-02T01:06:25;17.73;;;12.32;;
56746;SDS011;42623;49.978;9.966;2024-03-02T01:06:35;17.93;;;12.70;;
56746;SDS011;42623;49.978;9.966;2024-03-02T01:06:46;18.93;;;13.53;;
56746;SDS011;42623;49.978;9.966;2024-03-02T01:06:56;19.07;;;13.60;;
56746;SDS011;42623;49.978;9.966;2024-03-02T01:07:08;18.10;;;13.27;;
56746;SDS011;42623;49.978;9.966;2024-03-02T01:07:19;18.40;;;13.73;;
56746;SDS011;42623;49.978;9.966;2024-03-02T01:07:29;19.40;;;13.80;;
56746;SDS011;42623;49.978;9.966;2024-03-02T01:07:40;21.00;;;13.73;;
56746;SDS011;42623;49.978;9.966;2024-03-02T01:07:50;20.07;;;12.97;;
56746;SDS011;42623;49.978;9.966;2024-03-02T01:08:00;17.90;;;12.37;;
56746;SDS011;42623;49.978;9.966;2024-03-02T01:08:10;16.15;;;11.98;;
56746;SDS011;42623;49.978;9.966;2024-03-02T01:08:20;17.33;;;12.10;;
56746;SDS011;42623;49.978;9.966;2024-03-02T01:08:30;19.33;;;11.80;;
56746;SDS011;42623;49.978;9.966;2024-03-02T01:08:41;20.07;;;12.53;;
56746;SDS011;42623;49.978;9.966;2024-03-02T01:08:51;18.63;;;12.30;;
56746;SDS011;42623;49.978;9.966;2024-03-02T01:09:01;16.67;;;12.47;;
56746;SDS011;42623;49.978;9.966;2024-03-02T01:09:12;16.55;;;11.63;;
56746;SDS011;42623;49.978;9.966;2024-03-02T01:09:22;18.50;;;12.00;;
56746;SDS011;42623;49.978;9.966;2024-03-02T01:09:32;20.33;;;12.97;;
56746;SDS011;42623;49.978;9.966;2024-03-02T01:09:42;23.58;;;14.30;;
56746;SDS011;42623;49.978;9.966;2024-03-02T01:09:53;24.60;;;15.47;;
56746;SDS011;42623;49.978;9.966;2024-03-02T01:10:03;26.50;;;16.17;;
56746;SDS011;42623;49.978;9.966;2024-03-02T01:10:13;26.53;;;16.47;;
56746;SDS011;42623;49.978;9.966;2024-03-02T01:10:23;25.88;;;16.02;;
56746;SDS011;42623;49.978;9.966;2024-03-02T01:10:33;22.47;;;15.07;;
56746;SDS011;42623;49.978;9.966;2024-03-02T01:10:44;17.97;;;13.90;;
56746;SDS011;42623;49.978;9.966;2024-03-02T01:10:54;16.97;;;13.67;;
56746;SDS011;42623;49.978;9.966;2024-03-02T01:11:04;17.10;;;13.30;;
56746;SDS011;42623;49.978;9.966;2024-03-02T01:11:14;20.30;;;14.30;;
56746;SDS011;42623;49.978;9.966;2024-03-02T01:11:25;21.10;;;14.27;;
56746;SDS011;42623;49.978;9.966;2024-03-02T01:11:35;22.37;;;14.87;;
56746;SDS011;42623;49.978;9.966;2024-03-02T01:11:45;21.25;;;14.40;;
56746;SDS011;42623;49.978;9.966;2024-03-02T01:11:55;22.23;;;14.77;;
56746;SDS011;42623;49.978;9.966;2024-03-02T01:12:05;21.60;;;14.20;;
56746;SDS011;42623;49.978;9.966;2024-03-02T01:12:16;20.67;;;14.40;;
56746;SDS011;42623;49.978;9.966;2024-03-02T01:12:26;19.20;;;13.77;;
56746;SDS011;42623;49.978;9.966;2024-03-02T01:12:36;18.43;;;12.97;;
56746;SDS011;42623;49.978;9.966;2024-03-02T01:12:46;18.87;;;12.67;;
56746;SDS011;42623;49.978;9.966;2024-03-02T01:12:56;17.97;;;12.37;;
56746;SDS011;42623;49.978;9.966;2024-03-02T01:13:06;21.40;;;13.17;;
56746;SDS011;42623;49.978;9.966;2024-03-02T01:13:16;23.23;;;14.18;;
56746;SDS011;42623;49.978;9.966;2024-03-02T01:13:27;25.77;;;14.30;;
56746;SDS011;42623;49.978;9.966;2024-03-02T01:13:37;22.70;;;14.30;;
56746;SDS011;42623;49.978;9.966;2024-03-02T01:13:47;21.20;;;12.93;;
56746;SDS011;42623;49.978;9.966;2024-03-02T01:13:57;18.67;;;12.70;;
56746;SDS011;42623;49.978;9.966;2024-03-02T01:14:08;18.93;;;12.10;;
56746;SDS011;42623;49.978;9.966;2024-03-02T01:14:18;18.63;;;12.93;;
56746;SDS011;42623;49.978;9.966;2024-03-02T01:14:28;19.23;;;13.13;;
56746;SDS011;42623;49.978;9.966;2024-03-02T01:14:38;19.10;;;12.73;;
56746;SDS011;42623;49.978;9.966;2024-03-02T01:14:48;20.13;;;12.83;;
56746;SDS011;42623;49.978;9.966;2024-03-02T01:14:58;20.40;;;13.07;;
56746;SDS011;42623;49.978;9.966;2024-03-02T01:15:08;19.73;;;13.17;;
56746;SDS011;42623;49.978;9.966;2024-03-02T01:15:19;18.43;;;13.20;;
56746;SDS011;42623;49.978;9.966;2024-03-02T01:15:29;18.13;;;13.02;;
56746;SDS011;42623;49.978;9.966;2024-03-02T01:15:39;19.47;;;12.93;;
56746;SDS011;42623;49.978;9.966;2024-03-02T01:15:50;19.57;;;12.23;;
56746;SDS011;42623;49.978;9.966;2024-03-02T01:16:00;20.65;;;13.02;;
56746;SDS011;42623;49.978;9.966;2024-03-02T01:16:10;22.27;;;15.37;;
56746;SDS011;42623;49.978;9.966;2024-03-02T01:16:20;22.97;;;15.83;;
56746;SDS011;42623;49.978;9.966;2024-03-02T01:16:30;21.10;;;14.60;;
56746;SDS011;42623;49.978;9.966;2024-03-02T01:16:40;21.83;;;13.55;;
56746;SDS011;42623;49.978;9.966;2024-03-02T01:16:51;21.67;;;14.03;;
56746;SDS011;42623;49.978;9.966;2024-03-02T01:17:01;22.70;;;14.37;;
56746;SDS011;42623;49.978;9.966;2024-03-02T01:17:14;22.23;;;14.23;;
56746;SDS011;42623;49.978;9.966;2024-03-02T01:17:24;23.83;;;14.00;;
56746;SDS011;42623;49.978;9.966;2024-03-02T01:17:34;22.63;;;13.70;;
56746;SDS011;42623;49.978;9.966;2024-03-02T01:17:44;21.10;;;13.33;;
56746;SDS011;42623;49.978;9.966;2024-03-02T01:17:54;21.60;;;14.60;;
56746;SDS011;42623;49.978;9.966;2024-03-02T01:18:04;22.67;;;15.17;;
56746;SDS011;42623;49.978;9.966;2024-03-02T01:18:15;25.03;;;17.23;;
56746;SDS011;42623;49.978;9.966;2024-03-02T01:18:25;27.52;;;17.95;;
56746;SDS011;42623;49.978;9.966;2024-03-02T01:18:35;29.23;;;18.90;;
56746;SDS011;42623;49.978;9.966;2024-03-02T01:18:45;28.30;;;18.27;;
56746;SDS011;42623;49.978;9.966;2024-03-02T01:18:55;24.70;;;17.93;;
56746;SDS011;42623;49.978;9.966;2024-03-02T01:19:06;22.10;;;16.03;;
56746;SDS011;42623;49.978;9.966;2024-03-02T01:19:16;21.67;;;15.32;;
56746;SDS011;42623;49.978;9.966;2024-03-02T01:19:26;21.70;;;14.10;;
56746;SDS011;42623;49.978;9.966;2024-03-02T01:19:36;21.47;;;14.23;;
56746;SDS011;42623;49.978;9.966;2024-03-02T01:19:46;19.93;;;13.77;;
56746;SDS011;42623;49.978;9.966;2024-03-02T01:19:57;18.60;;;13.13;;
56746;SDS011;42623;49.978;9.966;2024-03-02T01:20:07;18.50;;;12.87;;
56746;SDS011;42623;49.978;9.966;2024-03-02T01:20:18;19.30;;;13.35;;
56746;SDS011;42623;49.978;9.966;2024-03-02T01:20:28;19.63;;;13.67;;
56746;SDS011;42623;49.978;9.966;2024-03-02T01:20:38;19.70;;;14.13;;
56746;SDS011;42623;49.978;9.966;2024-03-02T01:20:48;18.33;;;13.33;;
56746;SDS011;42623;49.978;9.966;2024-03-02T01:21:01;21.33;;;14.43;;
56746;SDS011;42623;49.978;9.966;2024-03-02T01:21:11;20.00;;;13.13;;
56746;SDS011;42623;49.978;9.966;2024-03-02T01:21:21;19.80;;;12.60;;
56746;SDS011;42623;49.978;9.966;2024-03-02T01:21:32;18.53;;;12.40;;
56746;SDS011;42623;49.978;9.966;2024-03-02T01:21:42;20.90;;;12.93;;
56746;SDS011;42623;49.978;9.966;2024-03-02T01:21:52;23.30;;;12.97;;
56746;SDS011;42623;49.978;9.966;2024-03-02T01:22:02;23.80;;;13.20;;
56746;SDS011;42623;49.978;9.966;2024-03-02T01:22:12;22.37;;;13.43;;
56746;SDS011;42623;49.978;9.966;2024-03-02T01:22:22;20.97;;;13.87;;
56746;SDS011;42623;49.978;9.966;2024-03-02T01:22:35;20.17;;;14.00;;
56746;SDS011;42623;49.978;9.966;2024-03-02T01:22:45;19.63;;;13.53;;
56746;SDS011;42623;49.978;9.966;2024-03-02T01:22:56;20.00;;;13.43;;
56746;SDS011;42623;49.978;9.966;2024-03-02T01:23:06;20.57;;;13.67;;
56746;SDS011;42623;49.978;9.966;2024-03-02T01:23:17;19.73;;;13.50;;